Time;durP1;ratioP1;P1;durP2;ratioP2;P2;SDS_P1;SDS_P2;PMS_P1;PMS_P2;Temp;Humidity;BMP_temperature;BMP_pressure;BME280_temperature;BME280_humidity;BME280_pressure;Samples;Min_cycle;Max_cycle;Signal;HPM_P1;HPM_P2
2023/06/15 00:00:10;;;;;;;11.95;5.13;;;15.50;99.90;;;;;;5037505;28;20455;-79
2023/06/15 00:02:37;;;;;;;13.73;5.50;;;15.40;99.90;;;;;;5054958;28;20049;-79
2023/06/15 00:05:05;;;;;;;15.82;5.32;;;15.40;99.90;;;;;;5036865;28;20444;-79
2023/06/15 00:07:32;;;;;;;11.48;4.43;;;15.40;99.90;;;;;;5055524;28;20401;-79
2023/06/15 00:09:58;;;;;;;11.48;4.75;;;15.30;99.90;;;;;;5054896;28;20037;-79
2023/06/15 00:12:25;;;;;;;10.25;4.63;;;15.30;99.90;;;;;;5036450;28;20144;-79
2023/06/15 00:14:52;;;;;;;11.40;5.03;;;15.30;99.90;;;;;;5020514;28;20045;-78
2023/06/15 00:17:21;;;;;;;11.20;5.20;;;15.20;99.90;;;;;;5036888;28;20098;-78
2023/06/15 00:19:48;;;;;;;11.23;5.00;;;15.10;99.90;;;;;;5037404;28;20075;-78
2023/06/15 00:22:15;;;;;;;12.70;5.05;;;15.00;99.90;;;;;;5037138;28;20079;-79
2023/06/15 00:24:42;;;;;;;11.30;6.00;;;14.90;99.90;;;;;;5053752;28;20103;-79
2023/06/15 00:27:08;;;;;;;13.20;5.38;;;14.80;99.90;;;;;;5037118;28;20049;-79
2023/06/15 00:29:35;;;;;;;12.07;4.70;;;14.80;99.90;;;;;;5053348;28;20056;-77
2023/06/15 00:32:02;;;;;;;12.90;5.05;;;14.70;99.90;;;;;;5019562;28;20048;-78
2023/06/15 00:34:30;;;;;;;9.80;4.80;;;14.70;99.90;;;;;;5056232;28;20545;-78
2023/06/15 00:36:57;;;;;;;11.30;4.93;;;14.70;99.90;;;;;;5020312;28;20136;-78
2023/06/15 00:39:23;;;;;;;10.05;4.72;;;14.70;99.90;;;;;;5020800;28;20122;-79
2023/06/15 00:41:50;;;;;;;10.75;4.70;;;14.80;99.90;;;;;;5054598;28;20116;-79
2023/06/15 00:44:17;;;;;;;8.07;3.88;;;14.70;99.90;;;;;;5036044;28;20106;-79
2023/06/15 00:46:44;;;;;;;11.05;5.05;;;14.70;99.90;;;;;;5036733;28;20045;-79
2023/06/15 00:49:11;;;;;;;10.65;5.32;;;14.70;99.90;;;;;;5054541;28;20466;-79
2023/06/15 00:51:41;;;;;;;11.32;5.00;;;14.70;99.90;;;;;;5036765;28;20055;-80
2023/06/15 00:54:08;;;;;;;12.02;5.00;;;14.60;99.90;;;;;;5054213;28;20083;-79
2023/06/15 00:56:35;;;;;;;12.52;5.47;;;14.50;99.90;;;;;;5037168;28;20049;-79
2023/06/15 00:59:01;;;;;;;11.68;4.80;;;14.40;99.90;;;;;;5035998;28;20048;-79
2023/06/15 01:01:28;;;;;;;12.80;5.18;;;14.40;99.90;;;;;;5036825;28;20040;-79
2023/06/15 01:03:59;;;;;;;13.50;5.45;;;14.30;99.90;;;;;;5035772;28;20092;-79
2023/06/15 01:06:31;;;;;;;10.95;4.85;;;14.30;99.90;;;;;;5021136;28;20044;-79
2023/06/15 01:08:58;;;;;;;10.80;5.25;;;14.20;99.90;;;;;;5054413;28;20041;-79
2023/06/15 01:11:25;;;;;;;12.10;5.75;;;14.20;99.90;;;;;;5053595;28;20056;-78
2023/06/15 01:13:57;;;;;;;10.63;5.03;;;14.10;99.90;;;;;;5037689;28;20422;-77
2023/06/15 01:16:24;;;;;;;12.18;5.20;;;14.10;99.90;;;;;;5036704;28;20065;-79
2023/06/15 01:18:57;;;;;;;11.55;5.25;;;14.00;99.90;;;;;;5036971;28;20037;-79
2023/06/15 01:21:24;;;;;;;;;;;14.00;99.90;;;;;;5054808;28;20041;-78
2023/06/15 01:23:50;;;;;;;9.13;4.70;;;14.00;99.90;;;;;;5035340;28;20035;-79
2023/06/15 01:26:24;;;;;;;11.35;4.80;;;14.00;99.90;;;;;;5035967;28;20056;-78
2023/06/15 01:28:52;;;;;;;12.02;5.22;;;14.10;99.90;;;;;;5054600;28;20037;-78
2023/06/15 01:31:19;;;;;;;9.70;4.82;;;14.00;99.90;;;;;;5035588;28;20041;-78
2023/06/15 01:33:46;;;;;;;11.75;5.47;;;14.00;99.90;;;;;;5059343;28;20052;-78
2023/06/15 01:36:14;;;;;;;13.80;5.32;;;14.00;99.90;;;;;;5074099;28;20101;-78
2023/06/15 01:38:43;;;;;;;11.45;5.22;;;14.00;99.90;;;;;;5072454;28;20151;-79
2023/06/15 01:41:10;;;;;;;14.45;5.47;;;14.00;99.90;;;;;;5074131;28;20111;-79
2023/06/15 01:43:36;;;;;;;9.90;5.03;;;14.00;99.90;;;;;;5072819;28;20052;-79
2023/06/15 01:46:03;;;;;;;13.57;5.47;;;13.90;99.90;;;;;;5090187;28;20036;-78
2023/06/15 01:48:30;;;;;;;11.95;5.30;;;13.90;99.90;;;;;;5074174;28;20425;-79
2023/06/15 01:50:57;;;;;;;9.93;4.90;;;13.90;99.90;;;;;;5073190;28;20037;-78
2023/06/15 01:53:24;;;;;;;10.85;5.03;;;13.80;99.90;;;;;;5073889;28;20070;-77
2023/06/15 01:55:53;;;;;;;13.70;5.75;;;13.70;99.90;;;;;;5074227;28;20067;-78
2023/06/15 01:58:20;;;;;;;10.98;4.22;;;13.70;99.90;;;;;;5072787;28;20147;-78
2023/06/15 02:00:47;;;;;;;11.05;4.85;;;13.70;99.90;;;;;;5093754;28;20052;-78
2023/06/15 02:03:14;;;;;;;21.00;5.68;;;13.60;99.90;;;;;;5093241;28;20589;-80
2023/06/15 02:05:42;;;;;;;16.08;5.75;;;13.60;99.90;;;;;;5076725;28;20045;-78
2023/06/15 02:08:09;;;;;;;14.23;4.93;;;13.60;99.90;;;;;;5093543;28;20094;-78
2023/06/15 02:10:36;;;;;;;9.48;4.82;;;13.50;99.90;;;;;;5075590;28;20041;-78
2023/06/15 02:13:03;;;;;;;9.55;4.82;;;13.50;99.90;;;;;;5092993;28;20489;-78
2023/06/15 02:15:30;;;;;;;11.70;5.30;;;13.50;99.90;;;;;;5093089;28;20544;-77
2023/06/15 02:18:04;;;;;;;9.73;4.82;;;13.50;99.90;;;;;;5075694;28;20045;-78
2023/06/15 02:20:33;;;;;;;11.20;5.10;;;13.40;99.90;;;;;;5093547;28;20044;-77
2023/06/15 02:23:00;;;;;;;10.02;5.03;;;13.30;99.90;;;;;;5092685;28;20040;-77
2023/06/15 02:25:30;;;;;;;16.98;5.38;;;13.20;99.90;;;;;;5075269;28;20060;-79
2023/06/15 02:27:57;;;;;;;12.38;5.35;;;13.10;99.90;;;;;;5092866;28;20049;-78
2023/06/15 02:30:24;;;;;;;10.13;4.85;;;13.10;99.90;;;;;;5082535;28;20047;-78
2023/06/15 02:32:52;;;;;;;10.98;4.93;;;13.00;99.90;;;;;;5096843;28;20375;-78
2023/06/15 02:35:19;;;;;;;9.52;4.40;;;13.10;99.90;;;;;;5096002;28;20048;-78
2023/06/15 02:37:46;;;;;;;15.23;4.65;;;13.10;99.90;;;;;;5096266;28;20425;-77
2023/06/15 02:40:13;;;;;;;14.38;4.50;;;13.10;99.90;;;;;;5096957;28;20036;-78
2023/06/15 02:42:40;;;;;;;12.00;5.00;;;13.10;99.90;;;;;;5096203;28;20162;-77
2023/06/15 02:45:08;;;;;;;11.68;5.07;;;13.00;99.90;;;;;;5095252;28;20051;-78
2023/06/15 02:47:38;;;;;;;10.98;5.00;;;13.00;99.90;;;;;;5096029;28;20131;-79
2023/06/15 02:50:05;;;;;;;12.57;5.10;;;13.00;99.90;;;;;;5097104;28;20411;-79
2023/06/15 02:52:36;;;;;;;14.40;4.88;;;12.90;99.90;;;;;;5095810;28;20067;-80
2023/06/15 02:55:08;;;;;;;14.70;5.00;;;12.80;99.90;;;;;;5079766;28;20075;-79
2023/06/15 02:57:35;;;;;;;12.63;5.65;;;12.90;99.90;;;;;;5094837;28;20784;-77
2023/06/15 03:00:23;;;;;;;10.07;5.05;;;12.90;99.90;;;;;;5095281;28;20062;-79
2023/06/15 03:03:00;;;;;;;13.60;5.28;;;12.90;99.90;;;;;;5095629;28;20036;-79
2023/06/15 03:05:33;;;;;;;12.68;5.15;;;12.80;99.90;;;;;;5094989;28;20039;-79
2023/06/15 03:08:01;;;;;;;14.07;5.53;;;12.80;99.90;;;;;;5078997;28;20093;-78
2023/06/15 03:10:49;;;;;;;12.60;5.60;;;12.70;99.90;;;;;;5094883;28;20043;-78
2023/06/15 03:13:15;;;;;;;9.88;4.63;;;12.70;99.90;;;;;;5095220;28;20397;-78
2023/06/15 03:15:43;;;;;;;10.40;4.88;;;12.70;99.90;;;;;;5096260;28;20060;-78
2023/06/15 03:18:11;;;;;;;12.70;5.00;;;12.70;99.90;;;;;;5094318;28;20090;-78
2023/06/15 03:20:43;;;;;;;14.57;5.13;;;12.60;99.90;;;;;;5095483;28;20040;-78
2023/06/15 03:23:10;;;;;;;10.90;4.82;;;12.60;99.90;;;;;;5094981;28;20040;-79
2023/06/15 03:25:39;;;;;;;11.30;5.28;;;12.50;99.90;;;;;;5077673;28;20101;-78
2023/06/15 03:28:06;;;;;;;11.32;4.82;;;12.50;99.90;;;;;;5095106;28;20051;-78
2023/06/15 03:30:35;;;;;;;11.30;4.68;;;12.50;99.90;;;;;;5087061;28;20071;-78
2023/06/15 03:33:02;;;;;;;10.10;4.63;;;12.50;99.90;;;;;;5074399;28;20044;-79
2023/06/15 03:35:31;;;;;;;13.18;5.10;;;12.50;99.90;;;;;;5074457;28;20055;-79
2023/06/15 03:37:58;;;;;;;10.82;4.57;;;12.50;99.90;;;;;;5074070;28;20148;-78
2023/06/15 03:40:25;;;;;;;12.00;4.80;;;12.40;99.90;;;;;;5074868;28;20467;-78
2023/06/15 03:42:52;;;;;;;14.77;4.80;;;12.40;99.90;;;;;;5075703;28;20032;-79
2023/06/15 03:45:21;;;;;;;14.40;4.88;;;12.30;99.90;;;;;;5073492;28;20040;-78
2023/06/15 03:47:50;;;;;;;10.63;4.22;;;12.30;99.90;;;;;;5074432;28;20387;-79
2023/06/15 03:50:17;;;;;;;11.20;4.63;;;12.30;99.90;;;;;;5074702;28;20474;-78
2023/06/15 03:52:44;;;;;;;9.65;3.90;;;12.20;99.90;;;;;;5074006;28;20435;-77
2023/06/15 03:55:12;;;;;;;9.48;4.38;;;12.30;99.90;;;;;;5074421;28;20124;-78
2023/06/15 03:57:40;;;;;;;9.25;4.32;;;12.30;99.90;;;;;;5073428;28;20048;-78
2023/06/15 04:00:07;;;;;;;10.20;4.68;;;12.30;99.90;;;;;;5074408;28;20048;-78
2023/06/15 04:02:38;;;;;;;10.60;4.85;;;12.30;99.90;;;;;;5075586;28;20080;-79
2023/06/15 04:05:05;;;;;;;9.90;4.32;;;12.30;99.90;;;;;;5073212;28;20442;-78
2023/06/15 04:07:32;;;;;;;10.55;4.82;;;12.30;99.90;;;;;;5074311;28;20052;-77
2023/06/15 04:09:59;;;;;;;11.73;4.72;;;12.30;99.90;;;;;;5074446;28;20181;-78
2023/06/15 04:12:26;;;;;;;10.13;4.57;;;12.30;99.90;;;;;;5072859;28;20131;-78
2023/06/15 04:14:55;;;;;;;9.38;4.13;;;12.30;99.90;;;;;;5075104;28;20439;-79
2023/06/15 04:17:21;;;;;;;11.23;5.25;;;12.30;99.90;;;;;;5056526;28;20429;-78
2023/06/15 04:19:49;;;;;;;10.57;5.05;;;12.30;99.90;;;;;;5074346;28;20056;-78
2023/06/15 04:22:16;;;;;;;9.63;4.68;;;12.30;99.90;;;;;;5073125;28;20047;-78
2023/06/15 04:24:43;;;;;;;10.65;4.65;;;12.30;99.90;;;;;;5073418;28;20048;-78
2023/06/15 04:27:12;;;;;;;10.35;4.53;;;12.40;99.90;;;;;;5074616;28;20032;-78
2023/06/15 04:29:45;;;;;;;11.23;4.97;;;12.40;99.90;;;;;;5073783;28;20044;-80
2023/06/15 04:32:15;;;;;;;10.90;4.95;;;12.40;99.90;;;;;;5072862;28;20430;-77
2023/06/15 04:34:45;;;;;;;10.73;4.68;;;12.40;99.90;;;;;;5073910;28;20383;-79
2023/06/15 04:37:13;;;;;;;10.85;4.90;;;12.50;99.90;;;;;;5073141;28;20106;-78
2023/06/15 04:39:42;;;;;;;10.18;4.82;;;12.60;99.90;;;;;;5074451;28;20055;-78
2023/06/15 04:42:11;;;;;;;13.05;5.13;;;12.70;99.90;;;;;;5073438;28;20149;-78
2023/06/15 04:44:40;;;;;;;13.98;5.35;;;12.70;99.90;;;;;;5072739;28;20033;-78
2023/06/15 04:47:07;;;;;;;12.88;5.30;;;12.80;99.90;;;;;;5074246;28;20135;-78
2023/06/15 04:49:34;;;;;;;15.65;5.15;;;12.90;99.90;;;;;;5073618;28;20132;-78
2023/06/15 04:52:02;;;;;;;12.80;4.90;;;13.00;99.90;;;;;;5072693;28;20052;-78
2023/06/15 04:54:31;;;;;;;11.85;5.03;;;13.20;99.90;;;;;;5057315;28;20048;-77
2023/06/15 04:56:58;;;;;;;10.07;4.80;;;13.30;99.90;;;;;;5073085;28;20109;-77
2023/06/15 04:59:26;;;;;;;13.50;5.40;;;13.50;99.90;;;;;;5057223;28;20131;-78
2023/06/15 05:01:53;;;;;;;14.02;5.47;;;13.60;99.90;;;;;;5074019;28;20048;-79
2023/06/15 05:04:30;;;;;;;11.82;5.22;;;13.80;99.90;;;;;;5073022;28;20063;-79
2023/06/15 05:06:58;;;;;;;10.77;5.13;;;13.80;99.90;;;;;;5073607;28;20043;-79
2023/06/15 05:09:25;;;;;;;11.30;4.80;;;13.80;99.90;;;;;;5073503;28;20044;-78
2023/06/15 05:11:53;;;;;;;11.00;4.68;;;13.90;99.90;;;;;;5072958;28;20121;-78
2023/06/15 05:14:21;;;;;;;9.95;4.95;;;13.90;99.90;;;;;;5073288;28;20046;-78
2023/06/15 05:16:48;;;;;;;13.55;4.80;;;14.20;99.90;;;;;;5056123;28;20060;-78
2023/06/15 05:19:16;;;;;;;15.20;5.55;;;14.30;99.90;;;;;;5074333;28;20041;-79
2023/06/15 05:21:43;;;;;;;14.40;6.07;;;14.50;99.90;;;;;;5073247;28;20044;-79
2023/06/15 05:24:10;;;;;;;15.85;5.65;;;14.70;99.90;;;;;;5072222;28;20374;-79
2023/06/15 05:26:37;;;;;;;14.98;6.13;;;15.00;99.90;;;;;;5074415;28;20509;-79
2023/06/15 05:29:08;;;;;;;14.83;6.70;;;15.20;99.90;;;;;;5073319;28;20558;-78
2023/06/15 05:31:35;;;;;;;16.13;5.55;;;15.40;99.90;;;;;;5055940;28;20284;-80
2023/06/15 05:34:03;;;;;;;13.02;5.53;;;15.50;99.90;;;;;;5074747;28;20375;-78
2023/06/15 05:36:33;;;;;;;17.60;5.30;;;15.70;99.90;;;;;;5061000;28;20048;-78
2023/06/15 05:39:21;;;;;;;14.15;5.72;;;15.90;99.90;;;;;;5063350;28;20390;-78
2023/06/15 05:41:48;;;;;;;13.77;5.22;;;16.00;99.90;;;;;;5076791;28;20044;-79
2023/06/15 05:44:15;;;;;;;12.00;5.18;;;16.20;99.90;;;;;;5075511;28;20053;-78
2023/06/15 05:46:43;;;;;;;13.48;5.40;;;16.30;99.90;;;;;;5060883;28;20415;-79
2023/06/15 05:49:11;;;;;;;11.60;5.55;;;16.50;99.90;;;;;;5076738;28;20041;-80
2023/06/15 05:51:37;;;;;;;16.55;5.53;;;16.50;99.90;;;;;;5075772;28;20052;-78
2023/06/15 05:54:04;;;;;;;10.75;5.13;;;16.60;99.90;;;;;;5076397;28;20048;-78
2023/06/15 05:56:32;;;;;;;15.40;5.40;;;16.70;99.90;;;;;;5076950;28;20037;-79
2023/06/15 05:58:59;;;;;;;15.90;5.55;;;16.80;99.90;;;;;;5075818;28;20139;-78
2023/06/15 06:01:26;;;;;;;14.23;5.60;;;16.80;99.90;;;;;;5076751;28;20040;-79
2023/06/15 06:03:53;;;;;;;16.85;5.00;;;17.00;99.90;;;;;;5075509;28;20391;-77
2023/06/15 06:06:20;;;;;;;14.85;5.55;;;17.10;99.90;;;;;;5077411;28;20040;-79
2023/06/15 06:08:49;;;;;;;15.57;5.50;;;17.10;99.90;;;;;;5076779;28;20539;-79
2023/06/15 06:11:16;;;;;;;12.77;4.93;;;17.30;99.90;;;;;;5075798;28;20033;-77
2023/06/15 06:13:49;;;;;;;12.90;5.22;;;17.30;99.90;;;;;;5060679;28;20110;-77
2023/06/15 06:16:16;;;;;;;13.35;5.38;;;17.40;99.90;;;;;;5076651;28;20375;-78
2023/06/15 06:18:43;;;;;;;14.02;5.15;;;17.50;99.90;;;;;;5075811;28;20048;-79
2023/06/15 06:21:10;;;;;;;16.27;4.95;;;17.60;99.90;;;;;;5060518;28;20040;-79
2023/06/15 06:23:38;;;;;;;21.70;5.93;;;17.70;99.90;;;;;;5074930;28;20383;-78
2023/06/15 06:26:07;;;;;;;16.23;5.63;;;17.80;99.90;;;;;;5059830;28;20127;-77
2023/06/15 06:28:35;;;;;;;12.82;5.45;;;18.00;99.90;;;;;;5059797;28;20090;-79
2023/06/15 06:31:01;;;;;;;12.57;5.40;;;18.10;99.90;;;;;;5086965;28;20101;-78
2023/06/15 06:33:28;;;;;;;18.30;5.57;;;18.20;99.90;;;;;;5094733;28;20093;-77
2023/06/15 06:35:55;;;;;;;15.15;5.15;;;18.20;99.90;;;;;;5077818;28;20037;-78
2023/06/15 06:38:22;;;;;;;15.43;4.90;;;18.40;99.90;;;;;;5058598;28;20048;-78
2023/06/15 06:40:49;;;;;;;14.18;5.55;;;18.50;99.90;;;;;;5058991;28;20391;-78
2023/06/15 06:43:15;;;;;;;16.85;5.75;;;18.60;99.90;;;;;;5058899;28;20036;-78
2023/06/15 06:45:42;;;;;;;16.48;5.07;;;18.60;99.90;;;;;;5057604;28;20045;-77
2023/06/15 06:48:09;;;;;;;20.77;5.85;;;18.80;99.90;;;;;;5076595;28;20041;-77
2023/06/15 06:50:36;;;;;;;15.90;5.40;;;18.90;99.90;;;;;;5075766;28;20094;-78
2023/06/15 06:53:03;;;;;;;11.50;5.60;;;19.00;99.90;;;;;;5058688;28;20132;-78
2023/06/15 06:55:30;;;;;;;16.85;5.82;;;19.20;99.90;;;;;;5058870;28;20044;-78
2023/06/15 06:58:00;;;;;;;19.25;5.10;;;19.30;99.90;;;;;;5075945;28;20094;-78
2023/06/15 07:00:27;;;;;;;13.18;5.85;;;19.50;99.90;;;;;;5059909;28;20068;-79
2023/06/15 07:02:54;;;;;;;14.07;5.68;;;19.60;99.90;;;;;;5059588;28;20060;-78
2023/06/15 07:05:24;;;;;;;13.40;5.50;;;19.60;99.90;;;;;;5076585;28;20119;-78
2023/06/15 07:07:50;;;;;;;15.93;5.55;;;19.70;99.90;;;;;;5060636;28;20521;-77
2023/06/15 07:10:17;;;;;;;15.75;5.28;;;19.70;99.90;;;;;;5077153;28;20410;-79
2023/06/15 07:12:44;;;;;;;16.55;4.78;;;19.70;99.90;;;;;;5077376;28;20509;-79
2023/06/15 07:15:11;;;;;;;16.63;5.95;;;19.90;99.90;;;;;;5076723;28;20528;-79
2023/06/15 07:17:37;;;;;;;16.27;5.65;;;20.00;99.90;;;;;;5075460;28;20139;-79
2023/06/15 07:20:04;;;;;;;14.88;5.45;;;20.10;99.90;;;;;;5075992;28;20098;-78
2023/06/15 07:22:31;;;;;;;15.20;6.13;;;20.10;99.90;;;;;;5075962;28;20045;-77
2023/06/15 07:24:59;;;;;;;18.60;5.45;;;20.00;99.90;;;;;;5057435;28;20036;-78
2023/06/15 07:27:26;;;;;;;17.27;5.90;;;20.10;99.90;;;;;;5076218;28;20360;-78
2023/06/15 07:29:53;;;;;;;17.23;6.00;;;20.20;99.90;;;;;;5076328;28;20045;-78
2023/06/15 07:32:19;;;;;;;16.42;5.90;;;20.30;99.90;;;;;;5074834;28;20367;-79
2023/06/15 07:34:48;;;;;;;21.88;5.70;;;20.60;99.90;;;;;;5081284;28;20428;-79
2023/06/15 07:37:14;;;;;;;11.93;4.95;;;20.80;99.90;;;;;;5095158;28;20097;-78
2023/06/15 07:39:41;;;;;;;15.18;5.57;;;20.80;99.90;;;;;;5094547;28;20036;-78
2023/06/15 07:42:08;;;;;;;13.60;5.50;;;20.80;99.90;;;;;;5095468;28;20052;-78
2023/06/15 07:44:36;;;;;;;16.20;5.63;;;21.00;99.90;;;;;;5094180;28;20044;-79
2023/06/15 07:47:03;;;;;;;15.95;5.68;;;21.10;99.90;;;;;;5095781;28;20366;-77
2023/06/15 07:49:29;;;;;;;17.02;6.22;;;21.20;99.90;;;;;;5095644;28;20434;-77
2023/06/15 07:52:11;;;;;;;;;;;21.40;99.90;;;;;;5095037;28;20060;-79
2023/06/15 07:57:23;;;;;;;14.40;5.22;;;21.80;99.90;;;;;;5094344;28;20075;-79
2023/06/15 07:59:50;;;;;;;13.93;5.03;;;21.80;99.90;;;;;;5095973;28;20044;-78
2023/06/15 08:02:17;;;;;;;14.68;4.95;;;22.00;99.90;;;;;;5081543;28;20052;-78
2023/06/15 08:04:43;;;;;;;10.80;5.05;;;22.20;99.90;;;;;;5073314;28;20363;-79
2023/06/15 08:07:12;;;;;;;14.75;5.53;;;22.20;99.90;;;;;;5074983;28;20047;-77
2023/06/15 08:09:39;;;;;;;15.85;5.95;;;22.40;99.90;;;;;;5074826;28;20052;-77
2023/06/15 08:12:06;;;;;;;13.82;4.50;;;22.40;99.90;;;;;;5071975;28;20036;-78
2023/06/15 08:14:32;;;;;;;13.90;4.93;;;22.50;99.90;;;;;;5089002;28;20064;-78
2023/06/15 08:16:59;;;;;;;15.43;5.22;;;22.60;99.90;;;;;;5093186;28;20040;-78
2023/06/15 08:19:27;;;;;;;10.00;4.60;;;22.80;99.90;;;;;;5094521;28;20059;-78
2023/06/15 08:21:53;;;;;;;20.80;4.80;;;22.80;99.90;;;;;;5094898;28;20040;-78
2023/06/15 08:24:21;;;;;;;10.32;4.55;;;22.80;99.90;;;;;;5093457;28;20044;-79
2023/06/15 08:26:51;;;;;;;13.45;4.80;;;22.90;99.90;;;;;;5094803;28;20036;-78
2023/06/15 08:29:17;;;;;;;19.60;5.45;;;23.10;99.90;;;;;;5095145;28;20040;-79
2023/06/15 08:31:52;;;;;;;14.32;5.03;;;23.30;99.90;;;;;;5092549;28;20042;-78
2023/06/15 08:34:19;;;;;;;13.00;5.13;;;23.40;99.90;;;;;;5094516;28;20084;-77
2023/06/15 08:36:46;;;;;;;15.88;5.53;;;23.30;99.90;;;;;;5089505;28;20062;-78
2023/06/15 08:39:13;;;;;;;17.75;5.18;;;23.50;99.90;;;;;;5056899;28;20049;-78
2023/06/15 08:41:40;;;;;;;11.45;4.97;;;23.70;99.90;;;;;;5056237;28;20040;-79
2023/06/15 08:44:07;;;;;;;13.75;5.72;;;24.00;99.90;;;;;;5072905;28;20102;-77
2023/06/15 08:46:33;;;;;;;19.80;5.80;;;23.80;99.90;;;;;;5073502;28;20463;-77
2023/06/15 08:49:00;;;;;;;20.20;5.47;;;24.00;99.90;;;;;;5073400;28;20067;-77
2023/06/15 08:51:27;;;;;;;14.77;4.93;;;24.20;99.90;;;;;;5072696;28;20036;-77
2023/06/15 08:53:54;;;;;;;18.67;6.25;;;24.40;99.90;;;;;;5073287;28;20514;-77
2023/06/15 08:56:22;;;;;;;19.77;4.88;;;24.10;99.90;;;;;;5094049;28;20040;-77
2023/06/15 08:58:51;;;;;;;14.10;6.57;;;23.90;99.90;;;;;;5075041;28;20044;-77
2023/06/15 09:01:18;;;;;;;15.75;4.57;;;23.70;99.90;;;;;;5048044;28;20057;-77
2023/06/15 09:03:45;;;;;;;13.60;5.95;;;23.80;99.90;;;;;;5035021;28;20037;-77
2023/06/15 09:06:12;;;;;;;13.82;4.30;;;24.00;99.90;;;;;;5020350;28;20107;-77
2023/06/15 09:08:39;;;;;;;18.17;5.03;;;24.30;99.90;;;;;;5057635;28;20037;-77
2023/06/15 09:11:06;;;;;;;17.48;5.82;;;24.40;99.90;;;;;;5057269;28;20052;-78
2023/06/15 09:13:32;;;;;;;16.50;5.07;;;25.00;99.90;;;;;;5080749;28;20040;-77
2023/06/15 09:15:59;;;;;;;15.55;4.63;;;25.10;99.90;;;;;;5098552;28;20055;-77
2023/06/15 09:18:26;;;;;;;16.48;5.82;;;25.10;99.90;;;;;;5075654;28;20049;-77
2023/06/15 09:20:53;;;;;;;15.07;5.90;;;25.20;99.90;;;;;;5080206;28;20047;-76
2023/06/15 09:23:19;;;;;;;14.27;5.63;;;25.20;99.90;;;;;;5060532;28;20052;-78
2023/06/15 09:25:46;;;;;;;18.00;5.35;;;25.30;99.90;;;;;;5066917;28;20032;-77
2023/06/15 09:28:13;;;;;;;16.08;5.55;;;25.50;99.90;;;;;;5060774;28;20048;-76
2023/06/15 09:30:40;;;;;;;18.00;6.35;;;26.00;99.90;;;;;;5065553;28;20132;-77
2023/06/15 09:33:07;;;;;;;18.27;6.07;;;26.40;99.90;;;;;;5079793;28;20043;-77
2023/06/15 09:35:34;;;;;;;20.73;5.97;;;26.20;99.90;;;;;;5094861;28;20467;-77
2023/06/15 09:38:01;;;;;;;17.98;5.45;;;26.10;99.90;;;;;;5076997;28;20110;-76
2023/06/15 09:40:28;;;;;;;16.20;5.30;;;26.50;99.90;;;;;;5061773;28;20048;-77
2023/06/15 09:42:56;;;;;;;18.65;5.93;;;26.40;99.90;;;;;;5097969;28;20139;-76
2023/06/15 09:45:24;;;;;;;13.93;4.47;;;26.70;99.90;;;;;;5095862;28;20047;-78
2023/06/15 09:47:51;;;;;;;15.55;5.55;;;27.30;99.90;;;;;;5077385;28;20510;-77
2023/06/15 09:50:17;;;;;;;13.30;4.80;;;27.90;99.90;;;;;;5059294;28;20366;-77
2023/06/15 09:52:45;;;;;;;11.38;4.82;;;28.00;99.90;;;;;;5040145;28;20048;-78
2023/06/15 09:55:12;;;;;;;15.07;5.13;;;28.10;99.90;;;;;;5039846;28;20107;-76
2023/06/15 09:57:39;;;;;;;16.88;5.05;;;28.30;98.50;;;;;;5095206;28;20230;-77
2023/06/15 10:00:08;;;;;;;17.83;4.93;;;28.50;97.70;;;;;;5097682;28;20105;-77
2023/06/15 10:02:37;;;;;;;13.40;4.72;;;28.70;96.60;;;;;;5097126;28;20048;-78
2023/06/15 10:05:04;;;;;;;14.90;4.80;;;29.10;95.30;;;;;;5062441;28;20047;-78
2023/06/15 10:07:32;;;;;;;12.32;5.07;;;29.30;94.00;;;;;;5097348;28;20036;-77
2023/06/15 10:09:59;;;;;;;10.63;4.30;;;29.20;94.80;;;;;;5062696;28;20490;-77
2023/06/15 10:12:26;;;;;;;13.98;5.03;;;29.10;93.70;;;;;;5079998;28;20129;-77
2023/06/15 10:14:53;;;;;;;14.52;5.25;;;28.90;90.90;;;;;;5077553;28;20052;-77
2023/06/15 10:17:20;;;;;;;15.00;4.55;;;28.70;92.10;;;;;;5073782;28;20424;-77
2023/06/15 10:19:47;;;;;;;13.30;4.70;;;28.80;92.50;;;;;;5062376;28;20070;-77
2023/06/15 10:22:14;;;;;;;11.30;4.32;;;29.40;92.40;;;;;;5079240;28;20050;-76
2023/06/15 10:24:41;;;;;;;15.93;4.65;;;29.30;91.70;;;;;;5078042;28;20074;-78
2023/06/15 10:27:08;;;;;;;10.82;4.40;;;29.70;90.40;;;;;;5083585;28;20072;-78
2023/06/15 10:29:36;;;;;;;10.63;4.40;;;30.40;88.20;;;;;;5077016;28;20036;-78
2023/06/15 10:32:02;;;;;;;15.55;4.28;;;30.50;85.00;;;;;;5038840;28;20103;-78
2023/06/15 10:34:30;;;;;;;11.13;4.30;;;30.00;84.90;;;;;;5057520;28;20060;-78
2023/06/15 10:36:57;;;;;;;10.85;4.07;;;30.50;83.80;;;;;;5086502;28;20051;-78
2023/06/15 10:39:23;;;;;;;12.57;3.88;;;30.30;80.30;;;;;;5087553;28;20477;-78
2023/06/15 10:41:50;;;;;;;11.57;3.85;;;30.80;81.90;;;;;;5058808;28;20044;-78
2023/06/15 10:44:17;;;;;;;17.23;3.97;;;31.60;79.70;;;;;;5074965;28;20520;-78
2023/06/15 10:46:46;;;;;;;12.90;4.27;;;31.80;78.20;;;;;;5085250;28;20036;-78
2023/06/15 10:49:13;;;;;;;7.57;3.60;;;32.10;77.60;;;;;;5096679;28;20409;-77
2023/06/15 10:51:40;;;;;;;9.52;3.55;;;32.50;75.90;;;;;;5077319;28;20465;-78
2023/06/15 10:54:07;;;;;;;9.80;4.00;;;32.70;72.90;;;;;;5078411;28;20105;-78
2023/06/15 10:56:34;;;;;;;11.02;4.22;;;33.20;70.20;;;;;;5078223;28;20040;-77
2023/06/15 10:59:01;;;;;;;9.43;3.40;;;33.60;69.60;;;;;;5095200;28;20040;-77
2023/06/15 11:01:28;;;;;;;12.70;3.65;;;33.70;68.50;;;;;;5095543;28;20039;-77
2023/06/15 11:03:55;;;;;;;8.52;3.33;;;34.00;67.20;;;;;;5077512;28;20044;-78
2023/06/15 11:06:22;;;;;;;6.22;2.92;;;34.00;67.20;;;;;;5095326;28;20340;-77
2023/06/15 11:08:48;;;;;;;12.05;3.30;;;34.50;63.20;;;;;;5095686;28;20487;-78
2023/06/15 11:11:15;;;;;;;8.30;2.97;;;34.40;62.00;;;;;;5094190;28;20064;-78
2023/06/15 11:13:42;;;;;;;10.70;3.20;;;34.50;63.10;;;;;;5095609;28;20050;-78
2023/06/15 11:16:09;;;;;;;10.55;3.33;;;34.50;62.90;;;;;;5095544;28;20067;-78
2023/06/15 11:18:36;;;;;;;11.20;3.40;;;34.90;61.80;;;;;;5095043;28;20121;-78
2023/06/15 11:21:03;;;;;;;8.82;3.40;;;35.10;59.90;;;;;;5077787;28;20465;-78
2023/06/15 11:23:32;;;;;;;10.88;3.17;;;35.30;59.80;;;;;;5073124;28;20040;-79
2023/06/15 11:26:01;;;;;;;6.90;2.65;;;35.50;59.60;;;;;;5056690;28;20061;-78
2023/06/15 11:28:31;;;;;;;10.27;2.90;;;36.40;58.40;;;;;;5075017;28;20131;-78
2023/06/15 11:31:06;;;;;;;12.20;3.05;;;36.80;57.90;;;;;;5085377;28;20036;-78
2023/06/15 11:33:37;;;;;;;5.50;2.38;;;36.50;56.90;;;;;;5074949;28;20048;-78
2023/06/15 11:36:05;;;;;;;13.50;2.83;;;36.50;55.70;;;;;;5075511;28;20041;-79
2023/06/15 11:38:31;;;;;;;7.25;2.40;;;36.50;54.70;;;;;;5074362;28;20075;-76
2023/06/15 11:40:58;;;;;;;8.20;3.15;;;36.70;56.10;;;;;;5041408;28;20048;-78
2023/06/15 11:43:25;;;;;;;10.20;2.40;;;36.70;55.30;;;;;;5057471;28;20143;-78
2023/06/15 11:45:53;;;;;;;9.20;2.53;;;37.20;54.40;;;;;;5050463;28;20056;-78
2023/06/15 11:48:19;;;;;;;10.80;2.60;;;36.70;54.30;;;;;;5055063;28;20079;-78
2023/06/15 11:50:46;;;;;;;6.03;2.63;;;37.10;55.20;;;;;;5037386;28;20075;-76
2023/06/15 11:53:13;;;;;;;9.35;2.90;;;37.00;54.20;;;;;;5037565;28;20052;-77
2023/06/15 11:55:40;;;;;;;6.72;2.40;;;36.70;54.10;;;;;;5055231;28;20048;-78
2023/06/15 11:58:07;;;;;;;7.63;2.45;;;36.60;54.20;;;;;;5054060;28;20154;-78
2023/06/15 12:00:34;;;;;;;10.07;2.88;;;37.00;53.00;;;;;;5054553;28;20489;-78
2023/06/15 12:03:01;;;;;;;6.57;2.50;;;37.00;53.10;;;;;;5037784;28;20064;-77
2023/06/15 12:05:28;;;;;;;8.32;2.90;;;37.40;53.60;;;;;;5054260;28;20095;-79
2023/06/15 12:07:55;;;;;;;8.05;3.05;;;37.80;53.20;;;;;;5055393;28;20444;-79
2023/06/15 12:10:21;;;;;;;6.05;2.80;;;38.00;53.80;;;;;;5054255;28;20045;-77
2023/06/15 12:12:48;;;;;;;8.63;2.85;;;38.30;53.10;;;;;;5054792;28;20132;-79
2023/06/15 12:15:16;;;;;;;7.47;2.60;;;38.50;53.00;;;;;;5055065;28;20056;-79
2023/06/15 12:17:43;;;;;;;7.47;2.90;;;39.10;52.30;;;;;;5036969;28;20045;-79
2023/06/15 12:20:11;;;;;;;9.13;3.10;;;38.40;51.40;;;;;;5055693;28;20041;-79
2023/06/15 12:22:38;;;;;;;6.45;2.60;;;37.70;51.50;;;;;;5054644;28;20124;-79
2023/06/15 12:25:05;;;;;;;7.32;2.40;;;37.10;51.80;;;;;;5036928;28;20453;-79
2023/06/15 12:27:31;;;;;;;10.18;2.90;;;36.60;52.20;;;;;;5020987;28;20045;-78
2023/06/15 12:29:58;;;;;;;8.32;2.97;;;36.90;52.60;;;;;;5021338;28;20053;-79
2023/06/15 12:32:26;;;;;;;5.95;2.80;;;37.50;51.90;;;;;;5036259;28;20438;-79
2023/06/15 12:34:54;;;;;;;5.70;2.78;;;38.20;52.10;;;;;;5061740;28;20133;-78
2023/06/15 12:37:20;;;;;;;8.15;2.97;;;38.80;52.80;;;;;;5073146;28;20040;-77
2023/06/15 12:39:47;;;;;;;8.23;3.20;;;38.30;52.30;;;;;;5074171;28;20076;-77
2023/06/15 12:42:14;;;;;;;7.93;3.15;;;37.80;52.80;;;;;;5066025;28;20463;-78